createdAt,value
2023-03-14T00:00:21.117Z,11.57
2023-03-14T00:00:53.610Z,10.43
2023-03-14T00:01:25.822Z,9.83
2023-03-14T00:01:58.458Z,10.33
2023-03-14T00:02:30.200Z,10.23
2023-03-14T00:03:01.999Z,9.83
2023-03-14T00:03:33.910Z,9.13
2023-03-14T00:04:06.356Z,9.60
2023-03-14T00:04:38.160Z,10.37
2023-03-14T00:05:10.447Z,10.33
2023-03-14T00:05:42.161Z,9.00
2023-03-14T00:06:14.677Z,9.77
2023-03-14T00:06:47.948Z,9.73
2023-03-14T00:07:19.742Z,9.90
2023-03-14T00:07:51.674Z,9.97
2023-03-14T00:08:24.792Z,9.33
2023-03-14T00:08:56.549Z,10.10
2023-03-14T00:09:30.772Z,9.67
2023-03-14T00:10:08.479Z,9.13
2023-03-14T00:10:40.449Z,10.00
2023-03-14T00:11:19.104Z,9.27
2023-03-14T00:11:50.826Z,9.80
2023-03-14T00:12:22.562Z,9.70
2023-03-14T00:12:54.281Z,10.20
2023-03-14T00:13:26.049Z,10.37
2023-03-14T00:13:58.282Z,9.73
2023-03-14T00:14:30.882Z,9.30
2023-03-14T00:15:04.584Z,8.77
2023-03-14T00:15:36.840Z,8.83
2023-03-14T00:16:13.597Z,8.33
2023-03-14T00:16:48.389Z,9.00
2023-03-14T00:17:20.158Z,9.00
2023-03-14T00:17:51.939Z,8.43
2023-03-14T00:18:24.526Z,8.77
2023-03-14T00:18:56.313Z,9.63
2023-03-14T00:19:28.093Z,9.83
2023-03-14T00:20:05.345Z,9.20
2023-03-14T00:20:37.088Z,9.30
2023-03-14T00:21:11.690Z,8.60
2023-03-14T00:21:43.453Z,9.13
2023-03-14T00:22:15.218Z,9.67
2023-03-14T00:22:46.957Z,9.17
2023-03-14T00:23:18.709Z,10.27
2023-03-14T00:23:50.521Z,9.63
2023-03-14T00:24:22.290Z,9.63
2023-03-14T00:24:54.057Z,10.13
2023-03-14T00:25:25.881Z,10.10
2023-03-14T00:26:06.233Z,9.70
2023-03-14T00:26:37.954Z,10.23
2023-03-14T00:27:09.716Z,10.50
2023-03-14T00:27:41.634Z,10.60
2023-03-14T00:28:14.095Z,10.63
2023-03-14T00:28:46.340Z,10.33
2023-03-14T00:29:18.197Z,10.87
2023-03-14T00:29:49.972Z,11.33
2023-03-14T00:30:21.873Z,12.20
2023-03-14T00:30:53.731Z,12.17
2023-03-14T00:31:25.674Z,11.77
2023-03-14T00:31:57.493Z,11.63
2023-03-14T00:32:29.343Z,12.43
2023-03-14T00:33:01.112Z,11.50
2023-03-14T00:33:33.021Z,10.87
2023-03-14T00:34:04.800Z,10.70
2023-03-14T00:34:36.543Z,9.40
2023-03-14T00:35:08.657Z,9.53
2023-03-14T00:35:40.435Z,9.70
2023-03-14T00:36:15.000Z,10.17
2023-03-14T00:36:46.819Z,9.83
2023-03-14T00:37:18.692Z,9.63
2023-03-14T00:37:50.461Z,9.50
2023-03-14T00:38:22.426Z,9.97
2023-03-14T00:38:54.313Z,10.00
2023-03-14T00:39:26.112Z,9.70
2023-03-14T00:39:59.666Z,9.30
2023-03-14T00:40:31.416Z,9.67
2023-03-14T00:41:08.177Z,10.07
2023-03-14T00:41:39.893Z,9.83
2023-03-14T00:42:11.770Z,8.73
2023-03-14T00:42:43.561Z,8.37
2023-03-14T00:43:15.316Z,9.07
2023-03-14T00:43:47.119Z,8.90
2023-03-14T00:44:18.831Z,9.13
2023-03-14T00:44:50.592Z,8.87
2023-03-14T00:45:22.362Z,8.67
2023-03-14T00:45:54.118Z,8.83
2023-03-14T00:46:25.916Z,9.00
2023-03-14T00:46:58.206Z,8.53
2023-03-14T00:47:29.968Z,8.63
2023-03-14T00:48:02.371Z,8.30
2023-03-14T00:48:34.891Z,8.53
2023-03-14T00:49:06.786Z,8.87
2023-03-14T00:49:38.780Z,8.53
2023-03-14T00:50:11.278Z,8.50
2023-03-14T00:50:43.036Z,8.37
2023-03-14T00:51:16.173Z,8.80
2023-03-14T00:51:48.038Z,8.23
2023-03-14T00:52:19.842Z,8.67
2023-03-14T00:52:51.620Z,8.50
2023-03-14T00:53:24.085Z,8.60
2023-03-14T00:53:55.841Z,9.10
2023-03-14T00:54:27.619Z,8.67
2023-03-14T00:54:59.399Z,8.67
2023-03-14T00:55:31.544Z,8.50
2023-03-14T00:56:05.541Z,8.30
2023-03-14T00:56:37.382Z,7.73
2023-03-14T00:57:09.099Z,8.17
2023-03-14T00:57:41.040Z,8.17
2023-03-14T00:58:15.370Z,8.30
2023-03-14T00:58:47.151Z,8.90
2023-03-14T00:59:19.016Z,7.77
2023-03-14T00:59:51.910Z,7.60
2023-03-14T01:00:24.755Z,8.00
2023-03-14T01:00:56.514Z,8.23
2023-03-14T01:01:28.351Z,8.80
2023-03-14T01:02:00.236Z,7.83
2023-03-14T01:02:32.081Z,8.50
2023-03-14T01:03:05.201Z,8.57
2023-03-14T01:03:37.348Z,8.23
2023-03-14T01:04:09.299Z,8.87
2023-03-14T01:04:41.112Z,9.87
2023-03-14T01:05:12.928Z,9.83
2023-03-14T01:05:44.672Z,9.73
2023-03-14T01:06:19.878Z,9.90
2023-03-14T01:06:51.693Z,10.07
2023-03-14T01:07:23.479Z,9.77
2023-03-14T01:07:55.349Z,10.10
2023-03-14T01:08:27.150Z,10.20
2023-03-14T01:08:59.275Z,10.40
2023-03-14T01:09:30.991Z,10.20
2023-03-14T01:10:02.896Z,10.63
2023-03-14T01:10:35.997Z,10.70
2023-03-14T01:11:13.395Z,11.20
2023-03-14T01:11:47.552Z,11.47
2023-03-14T01:12:19.366Z,10.70
2023-03-14T01:12:51.198Z,10.00
2023-03-14T01:13:22.966Z,10.83
2023-03-14T01:13:55.680Z,11.17
2023-03-14T01:14:27.487Z,10.43
2023-03-14T01:14:59.332Z,10.03
2023-03-14T01:15:34.251Z,9.87
2023-03-14T01:16:08.545Z,9.90
2023-03-14T01:16:40.313Z,10.47
2023-03-14T01:17:12.182Z,10.63
2023-03-14T01:17:44.018Z,9.80
2023-03-14T01:18:15.730Z,10.27
2023-03-14T01:18:48.726Z,10.17
2023-03-14T01:19:20.480Z,10.57
2023-03-14T01:19:52.258Z,10.47
2023-03-14T01:20:24.019Z,9.50
2023-03-14T01:20:55.751Z,10.30
2023-03-14T01:21:30.425Z,10.07
2023-03-14T01:22:02.249Z,9.70
2023-03-14T01:22:34.063Z,10.33
2023-03-14T01:23:05.851Z,10.37
2023-03-14T01:23:37.865Z,10.10
2023-03-14T01:24:12.999Z,9.20
2023-03-14T01:24:44.888Z,9.47
2023-03-14T01:25:18.186Z,9.50
2023-03-14T01:25:49.949Z,9.77
2023-03-14T01:26:24.328Z,10.23
2023-03-14T01:26:56.060Z,10.10
2023-03-14T01:27:27.847Z,9.93
2023-03-14T01:28:00.117Z,9.20
2023-03-14T01:28:31.871Z,9.43
2023-03-14T01:29:04.636Z,9.70
2023-03-14T01:29:36.385Z,8.90
2023-03-14T01:30:09.208Z,9.13
2023-03-14T01:30:40.941Z,9.57
2023-03-14T01:31:12.851Z,9.70
2023-03-14T01:31:44.695Z,9.60
2023-03-14T01:32:16.523Z,9.83
2023-03-14T01:32:48.333Z,9.20
2023-03-14T01:33:20.539Z,9.57
2023-03-14T01:33:52.449Z,9.63
2023-03-14T01:34:24.387Z,9.30
2023-03-14T01:34:56.120Z,8.77
2023-03-14T01:35:27.914Z,9.00
2023-03-14T01:35:59.971Z,8.97
2023-03-14T01:36:31.888Z,8.63
2023-03-14T01:37:03.999Z,9.17
2023-03-14T01:37:35.825Z,8.93
2023-03-14T01:38:07.564Z,9.43
2023-03-14T01:38:40.919Z,9.17
2023-03-14T01:39:14.075Z,9.10
2023-03-14T01:39:48.392Z,9.40
2023-03-14T01:40:20.335Z,8.93
2023-03-14T01:40:52.108Z,9.13
2023-03-14T01:41:26.897Z,8.90
2023-03-14T01:42:00.368Z,8.97
2023-03-14T01:42:32.262Z,8.67
2023-03-14T01:43:17.055Z,8.20
2023-03-14T01:43:49.853Z,8.27
2023-03-14T01:44:22.168Z,8.83
2023-03-14T01:44:55.367Z,9.07
2023-03-14T01:45:57.867Z,9.40
2023-03-14T01:46:48.177Z,9.87
2023-03-14T01:47:20.200Z,10.43
2023-03-14T01:47:51.932Z,10.53
2023-03-14T01:48:24.017Z,10.37
2023-03-14T01:49:01.264Z,10.63
2023-03-14T01:49:37.020Z,10.43
2023-03-14T01:50:13.411Z,10.80
2023-03-14T01:50:45.158Z,11.10
2023-03-14T01:51:25.729Z,10.13
2023-03-14T01:52:05.840Z,9.83
2023-03-14T01:52:47.359Z,10.90
2023-03-14T01:53:22.350Z,10.93
2023-03-14T01:54:01.926Z,10.23
2023-03-14T01:54:42.580Z,9.63
2023-03-14T01:55:18.555Z,10.87
2023-03-14T01:55:53.630Z,10.07
2023-03-14T01:56:25.953Z,10.07
2023-03-14T01:57:12.297Z,10.00
2023-03-14T01:58:04.160Z,10.27
2023-03-14T01:58:36.749Z,10.93
2023-03-14T01:59:11.734Z,10.90
2023-03-14T01:59:51.878Z,10.90
2023-03-14T02:00:24.624Z,11.10
2023-03-14T02:00:59.867Z,11.00
2023-03-14T02:01:31.731Z,11.20
2023-03-14T02:02:08.585Z,11.03
2023-03-14T02:02:44.269Z,10.00
2023-03-14T02:03:18.907Z,9.80
2023-03-14T02:03:55.254Z,10.37
2023-03-14T02:04:32.904Z,10.63
2023-03-14T02:05:05.289Z,9.57
2023-03-14T02:05:41.722Z,9.90
2023-03-14T02:06:19.129Z,10.10
2023-03-14T02:07:03.141Z,11.57
2023-03-14T02:08:08.135Z,10.90
2023-03-14T02:08:41.190Z,11.77
2023-03-14T02:09:12.943Z,10.73
2023-03-14T02:09:45.540Z,11.10
2023-03-14T02:10:24.985Z,10.93
2023-03-14T02:10:56.829Z,10.73
2023-03-14T02:11:31.170Z,10.57
2023-03-14T02:12:03.116Z,10.50
2023-03-14T02:12:36.868Z,10.40
2023-03-14T02:13:09.029Z,9.93
2023-03-14T02:13:40.994Z,10.53
2023-03-14T02:14:26.404Z,10.53
2023-03-14T02:14:58.173Z,10.57
2023-03-14T02:15:30.634Z,10.87
2023-03-14T02:16:02.781Z,10.20
2023-03-14T02:16:36.835Z,10.37
2023-03-14T02:17:09.196Z,11.07
2023-03-14T02:17:44.928Z,10.20
2023-03-14T02:18:17.792Z,9.93
2023-03-14T02:18:49.573Z,10.17
2023-03-14T02:19:35.889Z,10.13
2023-03-14T02:20:10.674Z,10.73
2023-03-14T02:21:06.376Z,10.20
2023-03-14T02:21:58.054Z,11.03
2023-03-14T02:22:30.058Z,10.33
2023-03-14T02:23:02.533Z,10.77
2023-03-14T02:23:54.599Z,10.63
2023-03-14T02:25:01.149Z,10.73
2023-03-14T02:26:28.828Z,10.87
2023-03-14T02:27:15.781Z,10.10
2023-03-14T02:27:49.505Z,9.47
2023-03-14T02:28:21.555Z,9.43
2023-03-14T02:28:54.520Z,9.77
2023-03-14T02:29:26.969Z,10.10
2023-03-14T02:30:03.737Z,9.83
2023-03-14T02:30:36.425Z,10.00
2023-03-14T02:31:09.732Z,9.80
2023-03-14T02:31:41.702Z,9.90
2023-03-14T02:32:15.873Z,9.23
2023-03-14T02:32:53.018Z,9.13
2023-03-14T02:33:25.190Z,9.17
2023-03-14T02:33:59.381Z,9.63
2023-03-14T02:34:32.859Z,9.80
2023-03-14T02:35:10.516Z,9.37
2023-03-14T02:35:51.860Z,8.90
2023-03-14T02:36:25.138Z,9.03
2023-03-14T02:36:57.528Z,9.17
2023-03-14T02:37:37.918Z,8.67
2023-03-14T02:38:34.949Z,9.43
2023-03-14T02:39:13.027Z,9.37
2023-03-14T02:39:46.425Z,9.30
2023-03-14T02:40:18.327Z,8.93
2023-03-14T02:40:50.299Z,9.20
2023-03-14T02:41:22.125Z,9.10
2023-03-14T02:41:53.831Z,8.83
2023-03-14T02:42:25.620Z,9.90
2023-03-14T02:42:57.591Z,9.80
2023-03-14T02:43:29.389Z,9.37
2023-03-14T02:44:01.236Z,9.40
2023-03-14T02:44:33.048Z,9.47
2023-03-14T02:45:07.660Z,9.47
2023-03-14T02:45:48.735Z,10.00
2023-03-14T02:46:22.639Z,9.53
2023-03-14T02:46:54.601Z,9.13
2023-03-14T02:47:31.624Z,9.50
2023-03-14T02:48:10.110Z,8.87
2023-03-14T02:48:50.947Z,8.73
2023-03-14T02:49:23.233Z,8.20
2023-03-14T02:50:07.820Z,8.47
2023-03-14T02:50:39.955Z,8.17
2023-03-14T02:51:12.957Z,8.70
2023-03-14T02:51:46.367Z,8.63
2023-03-14T02:52:18.125Z,9.17
2023-03-14T02:52:50.114Z,9.20
2023-03-14T02:53:33.551Z,10.20
2023-03-14T02:54:05.432Z,9.67
2023-03-14T02:54:37.235Z,9.77
2023-03-14T02:55:09.999Z,9.93
2023-03-14T02:55:46.136Z,9.10
2023-03-14T02:56:18.173Z,9.20
2023-03-14T02:56:49.923Z,9.43
2023-03-14T02:57:21.693Z,9.53
2023-03-14T02:57:54.133Z,9.67
2023-03-14T02:58:26.380Z,9.53
2023-03-14T02:58:58.877Z,9.13
2023-03-14T02:59:30.631Z,8.93
2023-03-14T03:00:06.165Z,9.47
2023-03-14T03:00:37.950Z,9.17
2023-03-14T03:01:09.842Z,9.40
2023-03-14T03:01:41.742Z,9.03
2023-03-14T03:02:13.659Z,10.47
2023-03-14T03:02:45.939Z,10.03
2023-03-14T03:03:18.285Z,10.00
2023-03-14T03:03:50.061Z,9.63
2023-03-14T03:04:21.771Z,9.47
2023-03-14T03:04:53.585Z,10.10
2023-03-14T03:05:25.365Z,10.30
2023-03-14T03:05:57.911Z,10.37
2023-03-14T03:06:30.139Z,9.97
2023-03-14T03:07:02.055Z,10.33
2023-03-14T03:07:33.770Z,10.03
2023-03-14T03:08:06.560Z,10.37
2023-03-14T03:08:38.417Z,10.43
2023-03-14T03:09:10.216Z,10.33
2023-03-14T03:09:41.976Z,10.27
2023-03-14T03:10:14.117Z,10.70
2023-03-14T03:10:45.950Z,10.03
2023-03-14T03:11:17.677Z,9.63
2023-03-14T03:11:49.389Z,9.80
2023-03-14T03:12:21.171Z,9.60
2023-03-14T03:12:53.062Z,9.57
2023-03-14T03:13:43.383Z,9.57
2023-03-14T03:14:15.113Z,9.83
2023-03-14T03:14:46.865Z,9.80
2023-03-14T03:15:19.095Z,9.40
2023-03-14T03:15:51.112Z,9.50
2023-03-14T03:16:22.898Z,9.50
2023-03-14T03:16:54.789Z,9.93
2023-03-14T03:17:26.600Z,9.60
2023-03-14T03:17:58.388Z,9.83
2023-03-14T03:18:30.252Z,9.80
2023-03-14T03:19:02.087Z,9.27
2023-03-14T03:19:35.200Z,10.03
2023-03-14T03:20:10.176Z,9.87
2023-03-14T03:21:01.852Z,9.77
2023-03-14T03:21:33.587Z,9.67
2023-03-14T03:22:05.383Z,10.43
2023-03-14T03:22:38.308Z,10.20
2023-03-14T03:23:10.244Z,9.87
2023-03-14T03:23:42.027Z,10.17
2023-03-14T03:24:13.780Z,10.20
2023-03-14T03:24:45.613Z,10.03
2023-03-14T03:25:17.995Z,9.60
2023-03-14T03:25:52.219Z,10.20
2023-03-14T03:26:23.990Z,9.67
2023-03-14T03:26:55.820Z,10.03
2023-03-14T03:27:27.633Z,9.97
2023-03-14T03:27:59.452Z,9.53
2023-03-14T03:28:31.365Z,9.30
2023-03-14T03:29:03.669Z,9.17
2023-03-14T03:29:35.437Z,9.20
2023-03-14T03:30:08.046Z,8.50
2023-03-14T03:30:41.393Z,9.73
2023-03-14T03:31:13.530Z,9.80
2023-03-14T03:31:46.517Z,9.03
2023-03-14T03:32:18.383Z,8.40
2023-03-14T03:32:50.757Z,8.30
2023-03-14T03:33:23.661Z,8.33
2023-03-14T03:33:55.393Z,9.20
2023-03-14T03:34:29.341Z,9.77
2023-03-14T03:35:01.118Z,9.67
2023-03-14T03:35:33.523Z,9.47
2023-03-14T03:36:05.811Z,9.53
2023-03-14T03:36:37.611Z,9.03
2023-03-14T03:37:09.481Z,9.60
2023-03-14T03:37:41.547Z,9.47
2023-03-14T03:38:14.286Z,9.37
2023-03-14T03:38:46.010Z,9.27
2023-03-14T03:39:17.729Z,9.47
2023-03-14T03:39:52.145Z,9.63
2023-03-14T03:40:24.030Z,9.03
2023-03-14T03:40:55.798Z,8.87
2023-03-14T03:41:27.626Z,9.30
2023-03-14T03:41:59.372Z,9.13
2023-03-14T03:42:31.182Z,9.17
2023-03-14T03:43:04.976Z,8.70
2023-03-14T03:43:36.798Z,8.70
2023-03-14T03:44:08.582Z,8.83
2023-03-14T03:44:40.380Z,8.93
2023-03-14T03:45:12.219Z,8.77
2023-03-14T03:45:44.006Z,8.70
2023-03-14T03:46:16.099Z,8.47
2023-03-14T03:46:48.507Z,8.53
2023-03-14T03:47:20.241Z,8.73
2023-03-14T03:47:52.041Z,8.97
2023-03-14T03:48:23.941Z,8.63
2023-03-14T03:48:57.859Z,8.97
2023-03-14T03:49:33.561Z,9.03
2023-03-14T03:50:05.873Z,8.57
2023-03-14T03:50:37.714Z,8.87
2023-03-14T03:51:14.549Z,9.03
2023-03-14T03:51:47.336Z,9.60
2023-03-14T03:52:19.422Z,9.40
2023-03-14T03:52:51.234Z,8.90
2023-03-14T03:53:32.865Z,8.30
2023-03-14T03:54:05.550Z,9.20
2023-03-14T03:54:37.627Z,9.80
2023-03-14T03:55:09.745Z,9.63
2023-03-14T03:55:44.408Z,9.20
2023-03-14T03:56:16.552Z,9.50
2023-03-14T03:56:48.344Z,8.93
2023-03-14T03:57:21.097Z,8.70
2023-03-14T03:57:53.449Z,8.00
2023-03-14T03:58:25.240Z,8.33
2023-03-14T03:58:57.037Z,9.00
2023-03-14T03:59:28.808Z,9.00
2023-03-14T04:00:00.654Z,8.73
2023-03-14T04:00:34.110Z,8.87
2023-03-14T04:01:09.693Z,8.77
2023-03-14T04:01:41.798Z,9.87
2023-03-14T04:02:13.960Z,10.17
2023-03-14T04:02:46.238Z,9.83
2023-03-14T04:03:18.123Z,9.83
2023-03-14T04:03:50.181Z,9.57
2023-03-14T04:04:22.144Z,9.10
2023-03-14T04:04:54.194Z,8.70
2023-03-14T04:05:26.356Z,9.03
2023-03-14T04:06:03.205Z,8.77
2023-03-14T04:06:35.464Z,9.20
2023-03-14T04:07:07.292Z,9.50
2023-03-14T04:07:39.080Z,9.00
2023-03-14T04:08:10.910Z,8.87
2023-03-14T04:08:42.757Z,9.40
2023-03-14T04:09:14.722Z,8.80
2023-03-14T04:09:46.588Z,8.20
2023-03-14T04:10:18.512Z,8.97
2023-03-14T04:10:50.274Z,8.73
2023-03-14T04:11:21.983Z,8.47
2023-03-14T04:11:53.768Z,8.93
2023-03-14T04:12:25.583Z,8.60
2023-03-14T04:12:57.384Z,8.33
2023-03-14T04:13:29.703Z,9.40
2023-03-14T04:14:01.500Z,9.67
2023-03-14T04:14:33.226Z,9.27
2023-03-14T04:15:05.429Z,9.17
2023-03-14T04:15:37.304Z,9.30
2023-03-14T04:16:18.685Z,8.73
2023-03-14T04:16:50.498Z,9.03
2023-03-14T04:17:22.900Z,8.87
2023-03-14T04:17:59.278Z,8.87
2023-03-14T04:18:31.464Z,8.60
2023-03-14T04:19:04.250Z,8.83
2023-03-14T04:19:36.039Z,9.20
2023-03-14T04:20:11.764Z,9.20
2023-03-14T04:20:43.665Z,9.33
2023-03-14T04:21:16.712Z,8.90
2023-03-14T04:21:48.545Z,8.60
2023-03-14T04:22:20.637Z,8.90
2023-03-14T04:22:52.394Z,8.47
2023-03-14T04:23:25.656Z,8.73
2023-03-14T04:23:57.467Z,8.20
2023-03-14T04:24:29.331Z,8.03
2023-03-14T04:25:03.446Z,8.37
2023-03-14T04:25:35.289Z,8.10
2023-03-14T04:26:07.365Z,8.00
2023-03-14T04:26:39.158Z,8.27
2023-03-14T04:27:11.038Z,8.17
2023-03-14T04:27:42.806Z,8.03
2023-03-14T04:28:14.558Z,7.97
2023-03-14T04:28:46.355Z,8.70
2023-03-14T04:29:18.301Z,8.23
2023-03-14T04:29:50.079Z,7.57
2023-03-14T04:30:21.855Z,7.53
2023-03-14T04:30:53.612Z,7.63
2023-03-14T04:31:25.429Z,7.63
2023-03-14T04:31:57.304Z,8.13
2023-03-14T04:32:29.130Z,8.03
2023-03-14T04:33:03.325Z,7.80
2023-03-14T04:33:35.091Z,8.20
2023-03-14T04:34:06.885Z,8.00
2023-03-14T04:34:38.757Z,8.37
2023-03-14T04:35:10.664Z,8.40
2023-03-14T04:35:42.439Z,8.00
2023-03-14T04:36:14.933Z,8.27
2023-03-14T04:36:46.652Z,7.87
2023-03-14T04:37:18.401Z,7.87
2023-03-14T04:37:50.228Z,8.30
2023-03-14T04:38:22.107Z,8.40
2023-03-14T04:38:53.878Z,7.77
2023-03-14T04:39:25.726Z,7.80
2023-03-14T04:39:57.471Z,7.87
2023-03-14T04:40:29.239Z,7.87
2023-03-14T04:41:01.718Z,8.47
2023-03-14T04:41:33.509Z,8.90
2023-03-14T04:42:05.296Z,9.13
2023-03-14T04:42:37.156Z,8.30
2023-03-14T04:43:10.866Z,8.33
2023-03-14T04:43:42.611Z,8.47
2023-03-14T04:44:14.372Z,8.33
2023-03-14T04:44:47.955Z,7.83
2023-03-14T04:45:19.851Z,8.07
2023-03-14T04:45:51.674Z,8.97
2023-03-14T04:46:23.630Z,8.43
2023-03-14T04:46:55.699Z,8.07
2023-03-14T04:47:27.790Z,7.60
2023-03-14T04:47:59.566Z,7.40
2023-03-14T04:48:31.559Z,7.20
2023-03-14T04:49:03.407Z,8.20
2023-03-14T04:49:35.251Z,7.97
2023-03-14T04:50:07.385Z,7.00
2023-03-14T04:50:39.463Z,7.90
2023-03-14T04:51:11.212Z,7.83
2023-03-14T04:51:42.982Z,7.87
2023-03-14T04:52:14.937Z,7.70
2023-03-14T04:52:46.708Z,7.57
2023-03-14T04:53:19.358Z,7.50
2023-03-14T04:53:51.142Z,7.23
2023-03-14T04:54:22.944Z,7.00
2023-03-14T04:54:54.764Z,7.90
2023-03-14T04:55:26.520Z,7.77
2023-03-14T04:55:58.386Z,7.50
2023-03-14T04:56:30.198Z,7.70
2023-03-14T04:57:01.959Z,7.43
2023-03-14T04:57:33.771Z,7.60
2023-03-14T04:58:05.686Z,7.63
2023-03-14T04:58:37.468Z,8.10
2023-03-14T04:59:09.603Z,7.77
2023-03-14T04:59:41.440Z,7.37
2023-03-14T05:00:13.451Z,7.87
2023-03-14T05:00:45.362Z,7.60
2023-03-14T05:01:17.187Z,8.00
2023-03-14T05:01:51.006Z,8.00
2023-03-14T05:02:22.916Z,7.67
2023-03-14T05:02:54.748Z,7.57
2023-03-14T05:03:26.532Z,7.57
2023-03-14T05:03:58.274Z,7.43
2023-03-14T05:04:30.596Z,8.03
2023-03-14T05:05:02.725Z,7.40
2023-03-14T05:05:34.624Z,7.50
2023-03-14T05:06:06.728Z,7.20
2023-03-14T05:06:38.529Z,7.27
2023-03-14T05:07:10.294Z,7.87
2023-03-14T05:07:42.050Z,7.40
2023-03-14T05:08:14.185Z,7.60
2023-03-14T05:08:46.041Z,8.00
2023-03-14T05:09:17.877Z,7.70
2023-03-14T05:09:49.781Z,7.47
2023-03-14T05:10:21.592Z,7.53
2023-03-14T05:10:57.147Z,7.63
2023-03-14T05:11:29.233Z,7.47
2023-03-14T05:12:01.163Z,7.17
2023-03-14T05:12:32.963Z,7.97
2023-03-14T05:13:05.024Z,8.53
2023-03-14T05:13:39.206Z,8.33
2023-03-14T05:14:12.452Z,7.83
2023-03-14T05:14:44.218Z,7.77
2023-03-14T05:15:16.060Z,8.33
2023-03-14T05:15:47.945Z,8.03
2023-03-14T05:16:19.815Z,7.53
2023-03-14T05:16:51.622Z,7.67
2023-03-14T05:17:23.417Z,7.53
2023-03-14T05:17:58.044Z,7.23
2023-03-14T05:18:29.763Z,7.50
2023-03-14T05:19:02.601Z,7.67
2023-03-14T05:19:36.033Z,7.43
2023-03-14T05:20:10.170Z,7.07
2023-03-14T05:20:42.043Z,7.20
2023-03-14T05:21:13.911Z,7.93
2023-03-14T05:21:45.790Z,7.80
2023-03-14T05:22:17.596Z,7.80
2023-03-14T05:22:49.409Z,8.03
2023-03-14T05:23:21.236Z,7.37
2023-03-14T05:23:53.039Z,7.73
2023-03-14T05:24:24.924Z,7.73
2023-03-14T05:24:58.195Z,7.93
2023-03-14T05:25:32.239Z,9.10
2023-03-14T05:26:04.480Z,9.23
2023-03-14T05:26:36.271Z,9.17
2023-03-14T05:27:08.040Z,9.13
2023-03-14T05:27:39.877Z,8.77
2023-03-14T05:28:11.648Z,9.13
2023-03-14T05:28:43.876Z,9.47
2023-03-14T05:29:15.642Z,9.17
2023-03-14T05:29:48.352Z,9.17
2023-03-14T05:30:20.199Z,9.20
2023-03-14T05:30:52.025Z,8.70
2023-03-14T05:31:23.960Z,8.17
2023-03-14T05:31:55.848Z,8.43
2023-03-14T05:32:27.760Z,9.53
2023-03-14T05:32:59.673Z,10.57
2023-03-14T05:33:31.422Z,11.43
2023-03-14T05:34:03.213Z,11.03
2023-03-14T05:34:35.361Z,11.10
2023-03-14T05:35:07.486Z,10.60
2023-03-14T05:35:39.265Z,10.47
2023-03-14T05:36:11.170Z,10.90
2023-03-14T05:36:43.002Z,9.93
2023-03-14T05:37:14.761Z,9.47
2023-03-14T05:37:46.619Z,10.30
2023-03-14T05:38:18.425Z,10.13
2023-03-14T05:38:50.265Z,10.07
2023-03-14T05:39:22.079Z,10.17
2023-03-14T05:39:53.860Z,10.93
2023-03-14T05:40:25.868Z,10.37
2023-03-14T05:40:57.945Z,9.67
2023-03-14T05:41:30.416Z,10.40
2023-03-14T05:42:02.151Z,9.97
2023-03-14T05:42:34.600Z,10.23
2023-03-14T05:43:09.038Z,10.03
2023-03-14T05:43:40.919Z,9.43
2023-03-14T05:44:12.731Z,8.77
2023-03-14T05:44:44.706Z,8.80
2023-03-14T05:45:16.568Z,9.07
2023-03-14T05:45:48.428Z,8.67
2023-03-14T05:46:20.302Z,8.77
2023-03-14T05:46:52.089Z,9.20
2023-03-14T05:47:24.113Z,8.67
2023-03-14T05:47:55.937Z,8.60
2023-03-14T05:48:27.843Z,8.30
2023-03-14T05:49:00.945Z,8.30
2023-03-14T05:49:35.232Z,8.90
2023-03-14T05:50:07.513Z,9.23
2023-03-14T05:50:39.326Z,11.80
2023-03-14T05:51:11.334Z,14.50
2023-03-14T05:51:43.560Z,17.80
2023-03-14T05:52:15.901Z,19.70
2023-03-14T05:52:47.687Z,13.63
2023-03-14T05:53:19.455Z,12.67
2023-03-14T05:53:51.274Z,10.90
2023-03-14T05:54:23.054Z,9.30
2023-03-14T05:54:54.837Z,8.70
2023-03-14T05:55:27.440Z,8.27
2023-03-14T05:55:59.226Z,8.43
2023-03-14T05:56:31.017Z,8.63
2023-03-14T05:57:02.743Z,7.97
2023-03-14T05:57:34.502Z,8.77
2023-03-14T05:58:06.293Z,9.40
2023-03-14T05:58:39.454Z,9.17
2023-03-14T05:59:11.436Z,8.70
2023-03-14T05:59:43.216Z,7.67
2023-03-14T06:00:15.449Z,7.80
2023-03-14T06:00:47.276Z,7.77
2023-03-14T06:01:19.047Z,8.13
2023-03-14T06:01:50.864Z,7.53
2023-03-14T06:02:22.827Z,7.73
2023-03-14T06:02:54.620Z,7.93
2023-03-14T06:03:26.467Z,7.63
2023-03-14T06:03:58.349Z,8.07
2023-03-14T06:04:30.151Z,8.47
2023-03-14T06:05:01.979Z,8.67
2023-03-14T06:05:34.291Z,8.33
2023-03-14T06:06:06.327Z,8.33
2023-03-14T06:06:38.149Z,7.77
2023-03-14T06:07:09.945Z,8.77
2023-03-14T06:07:41.761Z,11.83
2023-03-14T06:08:13.530Z,12.20
2023-03-14T06:08:45.262Z,11.93
2023-03-14T06:09:17.318Z,11.77
2023-03-14T06:09:49.093Z,9.77
2023-03-14T06:10:21.018Z,9.43
2023-03-14T06:10:53.445Z,10.37
2023-03-14T06:11:25.273Z,9.80
2023-03-14T06:11:57.116Z,10.30
2023-03-14T06:12:31.230Z,10.83
2023-03-14T06:13:03.541Z,10.70
2023-03-14T06:13:35.344Z,11.20
2023-03-14T06:14:07.185Z,11.53
2023-03-14T06:14:38.958Z,12.27
2023-03-14T06:15:11.383Z,13.03
2023-03-14T06:15:44.077Z,11.67
2023-03-14T06:16:15.972Z,13.67
2023-03-14T06:16:50.235Z,14.50
2023-03-14T06:17:22.429Z,11.30
2023-03-14T06:17:56.479Z,11.23
2023-03-14T06:18:28.296Z,12.43
2023-03-14T06:19:00.135Z,11.93
2023-03-14T06:19:31.914Z,11.07
2023-03-14T06:20:03.966Z,11.47
2023-03-14T06:20:41.679Z,10.20
2023-03-14T06:21:13.618Z,9.67
2023-03-14T06:21:45.593Z,9.43
2023-03-14T06:22:17.653Z,9.17
2023-03-14T06:22:49.480Z,8.93
2023-03-14T06:23:21.296Z,9.07
2023-03-14T06:23:53.072Z,9.90
2023-03-14T06:24:24.889Z,9.03
2023-03-14T06:24:56.729Z,9.37
2023-03-14T06:25:28.554Z,8.83
2023-03-14T06:26:00.597Z,11.33
2023-03-14T06:26:32.402Z,12.07
2023-03-14T06:27:04.609Z,11.17
2023-03-14T06:27:36.460Z,11.87
2023-03-14T06:28:08.227Z,11.50
2023-03-14T06:28:40.276Z,10.00
2023-03-14T06:29:12.265Z,9.27
2023-03-14T06:29:44.085Z,9.03
2023-03-14T06:30:16.112Z,8.87
2023-03-14T06:30:47.912Z,8.40
2023-03-14T06:31:19.774Z,8.73
2023-03-14T06:31:51.593Z,10.97
2023-03-14T06:32:23.699Z,10.63
2023-03-14T06:32:56.629Z,10.63
2023-03-14T06:33:28.503Z,9.43
2023-03-14T06:34:00.491Z,10.50
2023-03-14T06:34:32.431Z,11.07
2023-03-14T06:35:04.323Z,14.60
2023-03-14T06:35:36.160Z,15.80
2023-03-14T06:36:08.505Z,14.33
2023-03-14T06:36:40.488Z,13.87
2023-03-14T06:37:12.613Z,14.03
2023-03-14T06:37:45.400Z,14.70
2023-03-14T06:38:17.214Z,14.80
2023-03-14T06:38:49.056Z,13.67
2023-03-14T06:39:20.814Z,13.23
2023-03-14T06:39:52.567Z,12.30
2023-03-14T06:40:24.556Z,11.63
2023-03-14T06:40:56.383Z,11.63
2023-03-14T06:41:28.216Z,11.47
2023-03-14T06:42:00.141Z,13.87
2023-03-14T06:42:31.996Z,10.30
2023-03-14T06:43:03.757Z,9.10
2023-03-14T06:43:35.558Z,9.03
2023-03-14T06:44:07.271Z,8.87
2023-03-14T06:44:38.991Z,8.67
2023-03-14T06:45:11.859Z,8.03
2023-03-14T06:45:43.769Z,8.40
2023-03-14T06:46:16.559Z,10.03
2023-03-14T06:46:48.466Z,9.63
2023-03-14T06:47:20.270Z,9.73
2023-03-14T06:47:52.005Z,9.27
2023-03-14T06:48:23.942Z,9.27
2023-03-14T06:48:55.724Z,9.17
2023-03-14T06:49:27.573Z,9.83
2023-03-14T06:49:59.292Z,9.43
2023-03-14T06:50:31.260Z,10.17
2023-03-14T06:51:03.090Z,11.10
2023-03-14T06:51:35.162Z,10.27
2023-03-14T06:52:06.928Z,10.10
2023-03-14T06:52:42.298Z,9.30
2023-03-14T06:53:14.157Z,9.17
2023-03-14T06:53:45.888Z,9.37
2023-03-14T06:54:17.666Z,10.53
2023-03-14T06:54:49.476Z,12.27
2023-03-14T06:55:22.758Z,12.77
2023-03-14T06:55:54.689Z,12.67
2023-03-14T06:56:26.433Z,11.40
2023-03-14T06:56:58.196Z,10.73
2023-03-14T06:57:30.252Z,10.03
2023-03-14T06:58:02.048Z,9.83
2023-03-14T06:58:33.852Z,9.50
2023-03-14T06:59:05.594Z,9.17
2023-03-14T06:59:37.373Z,7.97
2023-03-14T07:00:09.898Z,7.80
2023-03-14T07:00:41.989Z,8.03
2023-03-14T07:01:22.694Z,8.00
2023-03-14T07:01:54.500Z,8.97
2023-03-14T07:02:39.964Z,9.30
2023-03-14T07:03:15.508Z,8.70
2023-03-14T07:03:47.698Z,9.00
2023-03-14T07:04:19.531Z,9.50
2023-03-14T07:04:51.357Z,9.80
2023-03-14T07:05:23.202Z,10.33
2023-03-14T07:05:55.032Z,10.00
2023-03-14T07:06:26.766Z,9.70
2023-03-14T07:06:58.521Z,10.43
2023-03-14T07:07:30.288Z,9.90
2023-03-14T07:08:04.233Z,10.13
2023-03-14T07:08:36.016Z,9.97
2023-03-14T07:09:07.935Z,9.30
2023-03-14T07:09:39.793Z,9.90
2023-03-14T07:10:14.894Z,9.63
2023-03-14T07:10:46.699Z,9.93
2023-03-14T07:11:18.525Z,9.33
2023-03-14T07:11:50.451Z,9.30
2023-03-14T07:12:22.282Z,9.23
2023-03-14T07:12:54.888Z,9.33
2023-03-14T07:13:26.628Z,9.37
2023-03-14T07:13:58.556Z,9.03
2023-03-14T07:14:30.371Z,9.07
2023-03-14T07:15:17.042Z,9.60
2023-03-14T07:15:50.221Z,8.43
2023-03-14T07:16:22.180Z,8.13